Time;durP1;ratioP1;P1;durP2;ratioP2;P2;SDS_P1;SDS_P2;PMS_P1;PMS_P2;Temp;Humidity;BMP_temperature;BMP_pressure;BME280_temperature;BME280_humidity;BME280_pressure;Samples;Min_cycle;Max_cycle;Signal;HPM_P1;HPM_P2
2021/04/10 00:01:42;;;;;;;7.60;6.80;;;9.40;99.90;;;;;;5088569;28;20249;-75
2021/04/10 00:04:10;;;;;;;5.80;5.30;;;9.40;99.90;;;;;;5078179;28;20219;-74
2021/04/10 00:06:36;;;;;;;6.03;4.83;;;9.30;99.90;;;;;;5067248;28;20704;-74
2021/04/10 00:09:04;;;;;;;5.87;5.03;;;9.20;99.90;;;;;;5068260;28;20292;-75
2021/04/10 00:11:30;;;;;;;7.30;5.50;;;9.20;99.90;;;;;;5067814;28;21049;-74
2021/04/10 00:13:56;;;;;;;8.07;5.30;;;9.30;99.90;;;;;;5067970;28;20243;-74
2021/04/10 00:16:23;;;;;;;5.90;5.30;;;9.10;99.90;;;;;;5067970;28;20569;-74
2021/04/10 00:18:49;;;;;;;5.70;5.20;;;9.00;99.90;;;;;;5068241;28;20222;-75
2021/04/10 00:21:16;;;;;;;6.27;5.67;;;9.00;99.90;;;;;;5067924;28;20207;-74
2021/04/10 00:23:43;;;;;;;5.63;5.13;;;9.00;99.90;;;;;;5067777;28;20268;-74
2021/04/10 00:26:10;;;;;;;6.57;5.40;;;9.00;99.90;;;;;;5067529;28;20673;-74
2021/04/10 00:28:36;;;;;;;6.50;5.37;;;9.00;99.90;;;;;;5067590;28;20696;-74
2021/04/10 00:31:06;;;;;;;5.70;5.20;;;9.00;99.90;;;;;;5067984;28;20204;-74
2021/04/10 00:33:33;;;;;;;6.30;5.67;;;9.10;99.90;;;;;;5067979;28;20641;-75
2021/04/10 00:36:00;;;;;;;5.80;5.20;;;9.10;99.90;;;;;;5068075;28;20253;-74
2021/04/10 00:38:29;;;;;;;6.07;5.57;;;9.10;99.90;;;;;;5067706;28;20538;-75
2021/04/10 00:40:56;;;;;;;6.80;5.90;;;9.20;99.90;;;;;;5068013;28;20613;-75
2021/04/10 00:43:22;;;;;;;6.03;5.53;;;9.20;99.90;;;;;;5067851;28;20203;-75
2021/04/10 00:45:48;;;;;;;5.90;5.23;;;9.20;99.90;;;;;;5067458;28;20709;-75
2021/04/10 00:48:14;;;;;;;6.00;5.40;;;9.20;99.90;;;;;;5067477;28;20207;-75
2021/04/10 00:50:40;;;;;;;5.73;5.13;;;9.20;99.90;;;;;;5067613;28;20589;-75
2021/04/10 00:53:07;;;;;;;6.00;5.40;;;9.20;99.90;;;;;;5068093;28;20211;-75
2021/04/10 00:55:36;;;;;;;6.33;5.37;;;9.20;99.90;;;;;;5077229;28;20660;-75
2021/04/10 00:58:02;;;;;;;5.50;5.07;;;9.20;99.90;;;;;;5077181;28;20199;-75
2021/04/10 01:00:28;;;;;;;6.37;5.50;;;9.20;99.90;;;;;;5084578;28;20593;-75
2021/04/10 01:02:54;;;;;;;6.03;5.47;;;9.20;99.90;;;;;;5067380;28;20204;-75
2021/04/10 01:05:21;;;;;;;5.50;5.00;;;9.10;99.90;;;;;;5067531;28;20241;-75
2021/04/10 01:07:47;;;;;;;6.80;5.43;;;9.00;99.90;;;;;;5067469;28;20265;-76
2021/04/10 01:10:14;;;;;;;6.23;5.17;;;9.00;99.90;;;;;;5073964;28;20249;-76
2021/04/10 01:12:51;;;;;;;6.50;5.43;;;8.90;99.90;;;;;;5087707;28;20581;-76
2021/04/10 01:15:24;;;;;;;5.03;4.53;;;8.90;99.90;;;;;;5071880;28;20243;-76
2021/04/10 01:17:55;;;;;;;5.30;4.90;;;8.90;99.90;;;;;;5070647;28;20202;-76
2021/04/10 01:21:05;;;;;;;5.20;4.80;;;8.80;99.90;;;;;;5071390;28;20670;-76
2021/04/10 01:24:27;;;;;;;4.97;4.67;;;8.80;99.90;;;;;;5071398;28;20310;-77
2021/04/10 01:27:27;;;;;;;5.50;5.00;;;8.80;99.90;;;;;;5084733;28;20653;-77
2021/04/10 01:29:57;;;;;;;5.47;5.03;;;8.80;99.90;;;;;;5091703;28;20206;-76
2021/04/10 01:32:27;;;;;;;4.80;4.40;;;8.80;99.90;;;;;;5091521;28;20222;-76
2021/04/10 01:34:59;;;;;;;5.83;5.00;;;8.80;99.90;;;;;;5091688;28;20568;-76
2021/04/10 01:37:29;;;;;;;5.23;4.73;;;8.80;99.90;;;;;;5091856;28;20249;-76
2021/04/10 01:39:58;;;;;;;5.40;4.87;;;8.70;99.90;;;;;;5091787;28;20235;-76
2021/04/10 01:42:26;;;;;;;5.83;4.30;;;8.60;99.90;;;;;;5091202;28;20571;-76
2021/04/10 01:44:56;;;;;;;5.67;4.40;;;8.60;99.90;;;;;;5091488;28;20257;-76
2021/04/10 01:47:22;;;;;;;4.53;4.13;;;8.70;99.90;;;;;;5091480;28;20203;-76
2021/04/10 01:49:50;;;;;;;4.80;4.40;;;8.60;99.90;;;;;;5091480;28;20239;-76
2021/04/10 01:52:17;;;;;;;5.17;4.50;;;8.60;99.90;;;;;;5091441;28;20661;-78
2021/04/10 01:54:44;;;;;;;4.90;4.50;;;8.60;99.90;;;;;;5091486;28;20219;-78
2021/04/10 01:57:12;;;;;;;4.60;4.20;;;8.60;99.90;;;;;;5091107;28;20811;-78
2021/04/10 01:59:41;;;;;;;5.90;4.60;;;8.70;99.90;;;;;;5091389;28;20241;-78
2021/04/10 02:02:09;;;;;;;5.27;4.80;;;8.60;99.90;;;;;;5091500;28;20202;-78
2021/04/10 02:04:40;;;;;;;4.97;4.10;;;8.70;99.90;;;;;;5091423;28;20234;-78
2021/04/10 02:07:07;;;;;;;5.83;4.60;;;8.60;99.90;;;;;;5091498;28;20698;-77
2021/04/10 02:09:34;;;;;;;4.77;4.37;;;8.70;99.90;;;;;;5091259;28;20210;-78
2021/04/10 02:12:01;;;;;;;4.37;3.97;;;8.60;99.90;;;;;;5091213;28;20207;-77
2021/04/10 02:14:30;;;;;;;5.87;4.20;;;8.70;99.90;;;;;;5090813;28;20246;-77
2021/04/10 02:16:57;;;;;;;5.23;4.83;;;8.70;99.90;;;;;;5091313;28;20234;-77
2021/04/10 02:19:24;;;;;;;4.27;3.90;;;8.70;99.90;;;;;;5090684;28;20250;-78
2021/04/10 02:21:50;;;;;;;5.50;4.50;;;8.70;99.90;;;;;;5091164;28;20209;-77
2021/04/10 02:24:16;;;;;;;4.83;4.30;;;8.70;99.90;;;;;;5090873;28;20629;-77
2021/04/10 02:26:42;;;;;;;5.07;4.63;;;8.70;99.90;;;;;;5091110;28;20209;-77
2021/04/10 02:29:10;;;;;;;4.73;4.33;;;8.70;99.90;;;;;;5090010;28;20210;-77
2021/04/10 02:31:40;;;;;;;6.03;4.83;;;8.70;99.90;;;;;;5090401;28;20640;-77
2021/04/10 02:34:13;;;;;;;5.03;3.97;;;8.70;99.90;;;;;;5090671;28;20817;-77
2021/04/10 02:36:41;;;;;;;5.87;4.57;;;8.80;99.90;;;;;;5090549;28;20195;-77
2021/04/10 02:39:09;;;;;;;5.10;4.60;;;8.70;99.90;;;;;;5090677;28;20210;-77
2021/04/10 02:41:37;;;;;;;4.90;4.40;;;8.70;99.90;;;;;;5090479;28;20203;-77
2021/04/10 02:44:07;;;;;;;4.27;3.97;;;8.70;99.90;;;;;;5090356;28;20568;-77
2021/04/10 02:46:36;;;;;;;4.63;4.10;;;8.70;99.90;;;;;;5090581;28;20191;-77
2021/04/10 02:49:04;;;;;;;4.43;4.10;;;8.70;99.90;;;;;;5090330;28;20262;-75
2021/04/10 02:51:36;;;;;;;4.97;4.00;;;8.70;99.90;;;;;;5089802;28;20689;-75
2021/04/10 02:54:05;;;;;;;4.73;4.30;;;8.70;99.90;;;;;;5090579;28;20191;-74
2021/04/10 02:56:35;;;;;;;4.80;4.33;;;8.70;99.90;;;;;;5089982;28;20214;-75
2021/04/10 02:59:02;;;;;;;5.43;4.60;;;8.70;99.90;;;;;;5090088;28;20210;-75
2021/04/10 03:01:30;;;;;;;4.60;4.20;;;8.70;99.90;;;;;;5089834;28;20755;-75
2021/04/10 03:03:58;;;;;;;6.37;4.90;;;8.70;99.90;;;;;;5089835;28;20206;-75
2021/04/10 03:06:24;;;;;;;4.70;4.30;;;8.70;99.90;;;;;;5089940;28;20202;-75
2021/04/10 03:08:51;;;;;;;4.83;4.43;;;8.70;99.90;;;;;;5089995;28;20210;-75
2021/04/10 03:11:18;;;;;;;4.97;4.43;;;8.70;99.90;;;;;;5089794;28;20206;-75
2021/04/10 03:13:44;;;;;;;5.10;4.33;;;8.70;99.90;;;;;;5089598;28;20202;-76
2021/04/10 03:16:11;;;;;;;4.77;4.30;;;8.60;99.90;;;;;;5089862;28;20757;-75
2021/04/10 03:18:38;;;;;;;5.77;4.60;;;8.60;99.90;;;;;;5089729;28;20238;-75
2021/04/10 03:21:05;;;;;;;4.97;4.57;;;8.70;99.90;;;;;;5089636;28;20886;-75
2021/04/10 03:23:32;;;;;;;6.63;4.60;;;8.70;99.90;;;;;;5089590;28;20237;-75
2021/04/10 03:26:00;;;;;;;4.37;4.03;;;8.70;99.90;;;;;;5089108;28;20727;-75
2021/04/10 03:28:28;;;;;;;5.03;4.63;;;8.70;99.90;;;;;;5089413;28;20236;-75
2021/04/10 03:30:56;;;;;;;5.10;4.27;;;8.60;99.90;;;;;;5089336;28;20244;-76
2021/04/10 03:33:22;;;;;;;5.07;4.67;;;8.60;99.90;;;;;;5089348;28;20241;-76
2021/04/10 03:35:49;;;;;;;6.63;4.47;;;8.60;99.90;;;;;;5089610;28;20214;-76
2021/04/10 03:38:15;;;;;;;6.13;4.87;;;8.60;99.90;;;;;;5089196;28;20935;-76
2021/04/10 03:40:41;;;;;;;5.17;4.60;;;8.60;99.90;;;;;;5089037;28;20207;-75
2021/04/10 03:43:08;;;;;;;5.03;4.63;;;8.70;99.90;;;;;;5089472;28;20203;-78
2021/04/10 03:45:35;;;;;;;5.07;4.57;;;8.70;99.90;;;;;;5089303;28;20230;-78
2021/04/10 03:48:01;;;;;;;4.90;4.40;;;8.70;99.90;;;;;;5089359;28;20209;-78
2021/04/10 03:50:27;;;;;;;6.03;4.47;;;8.70;99.90;;;;;;5089422;28;20203;-78
2021/04/10 03:52:53;;;;;;;4.90;4.40;;;8.70;99.90;;;;;;5089483;28;20203;-78
2021/04/10 03:55:19;;;;;;;4.67;4.27;;;8.70;99.90;;;;;;5088966;28;20707;-78
2021/04/10 03:57:46;;;;;;;5.00;4.50;;;8.60;99.90;;;;;;5089093;28;20203;-79
2021/04/10 04:00:13;;;;;;;7.23;4.50;;;8.60;99.90;;;;;;5089014;28;20574;-79
2021/04/10 04:02:40;;;;;;;5.07;4.57;;;8.60;99.90;;;;;;5088701;28;20213;-79
2021/04/10 04:05:07;;;;;;;5.13;4.50;;;8.60;99.90;;;;;;5088945;28;20227;-79
2021/04/10 04:07:33;;;;;;;4.30;4.00;;;8.50;99.90;;;;;;5088985;28;20210;-79
2021/04/10 04:10:00;;;;;;;4.37;4.07;;;8.50;99.90;;;;;;5089352;28;20215;-78
2021/04/10 04:12:26;;;;;;;4.83;4.40;;;8.60;99.90;;;;;;5088864;28;20202;-79
2021/04/10 04:14:53;;;;;;;4.53;4.23;;;8.60;99.90;;;;;;5088518;28;20242;-78
2021/04/10 04:17:19;;;;;;;5.23;4.53;;;8.60;99.90;;;;;;5088830;28;20264;-79
2021/04/10 04:19:46;;;;;;;5.27;4.77;;;8.50;99.90;;;;;;5088787;28;20203;-76
2021/04/10 04:22:12;;;;;;;5.03;4.53;;;8.60;99.90;;;;;;5088246;28;20207;-76
2021/04/10 04:24:38;;;;;;;5.40;4.90;;;8.60;99.90;;;;;;5088350;28;20226;-75
2021/04/10 04:27:05;;;;;;;5.50;4.80;;;8.60;99.90;;;;;;5088328;28;20625;-76
2021/04/10 04:29:31;;;;;;;5.10;4.60;;;8.50;99.90;;;;;;5087931;28;20980;-76
2021/04/10 04:31:57;;;;;;;5.53;5.13;;;8.50;99.90;;;;;;5080064;28;20203;-76
2021/04/10 04:34:23;;;;;;;5.73;5.33;;;8.50;99.90;;;;;;5068765;28;20215;-76
2021/04/10 04:36:53;;;;;;;6.10;5.50;;;8.40;99.90;;;;;;5068366;28;20617;-76
2021/04/10 04:39:19;;;;;;;8.93;6.07;;;8.40;99.90;;;;;;5068409;28;20211;-76
2021/04/10 04:41:45;;;;;;;6.07;5.57;;;8.30;99.90;;;;;;5068107;28;20208;-76
2021/04/10 04:44:12;;;;;;;6.20;5.60;;;8.30;99.90;;;;;;5067972;28;20733;-75
2021/04/10 04:46:38;;;;;;;6.50;5.53;;;8.30;99.90;;;;;;5067998;28;20203;-75
2021/04/10 04:49:04;;;;;;;6.17;5.57;;;8.40;99.90;;;;;;5068086;28;20239;-75
2021/04/10 04:51:30;;;;;;;6.13;5.53;;;8.30;99.90;;;;;;5068900;28;20243;-76
2021/04/10 04:53:57;;;;;;;6.77;6.07;;;8.40;99.90;;;;;;5072182;28;20199;-75
2021/04/10 04:56:23;;;;;;;6.10;5.67;;;8.40;99.90;;;;;;5071981;28;20242;-75
2021/04/10 04:58:52;;;;;;;6.00;5.60;;;8.30;99.90;;;;;;5071978;28;20231;-77
2021/04/10 05:01:18;;;;;;;7.07;6.43;;;8.20;99.90;;;;;;5071813;28;20632;-76
2021/04/10 05:03:44;;;;;;;6.50;6.00;;;8.20;99.90;;;;;;5071751;28;21013;-75
2021/04/10 05:06:10;;;;;;;6.80;6.20;;;8.10;99.90;;;;;;5072057;28;20713;-75
2021/04/10 05:08:37;;;;;;;7.33;6.70;;;8.10;99.90;;;;;;5071690;28;20747;-75
2021/04/10 05:11:04;;;;;;;7.17;6.40;;;8.10;99.90;;;;;;5071739;28;20257;-75
2021/04/10 05:13:30;;;;;;;7.40;6.63;;;8.10;99.90;;;;;;5071621;28;20203;-75
2021/04/10 05:15:56;;;;;;;7.67;6.77;;;8.10;99.90;;;;;;5071513;28;20602;-74
2021/04/10 05:18:22;;;;;;;7.90;7.17;;;8.10;99.90;;;;;;5071842;28;20218;-75
2021/04/10 05:20:48;;;;;;;7.40;6.70;;;8.10;99.90;;;;;;5071526;28;20222;-75
2021/04/10 05:23:20;;;;;;;8.00;6.77;;;8.10;99.90;;;;;;5071716;28;20255;-75
2021/04/10 05:25:46;;;;;;;6.90;6.30;;;8.10;99.90;;;;;;5071092;28;20845;-75
2021/04/10 05:28:13;;;;;;;7.47;6.77;;;8.10;99.90;;;;;;5071451;28;20208;-75
2021/04/10 05:30:39;;;;;;;7.03;6.43;;;8.10;99.90;;;;;;5070873;28;20260;-75
2021/04/10 05:33:05;;;;;;;6.70;6.20;;;8.00;99.90;;;;;;5071435;28;20199;-75
2021/04/10 05:35:31;;;;;;;7.30;6.60;;;8.10;99.90;;;;;;5070759;28;20693;-75
2021/04/10 05:37:58;;;;;;;8.47;6.73;;;8.00;99.90;;;;;;5071511;28;20256;-75
2021/04/10 05:40:24;;;;;;;8.13;7.03;;;8.00;99.90;;;;;;5071267;28;20203;-75
2021/04/10 05:42:50;;;;;;;7.40;6.80;;;8.00;99.90;;;;;;5071369;28;20682;-75
2021/04/10 05:45:17;;;;;;;7.27;6.67;;;8.00;99.90;;;;;;5071169;28;20223;-75
2021/04/10 05:47:43;;;;;;;7.50;6.80;;;8.00;99.90;;;;;;5071023;28;20254;-75
2021/04/10 05:50:11;;;;;;;7.60;7.00;;;8.00;99.90;;;;;;5078326;28;20210;-75
2021/04/10 05:52:37;;;;;;;7.30;6.70;;;8.10;99.90;;;;;;5079237;28;20235;-75
2021/04/10 05:55:03;;;;;;;7.27;6.57;;;8.10;99.90;;;;;;5081205;28;20218;-75
2021/04/10 05:57:29;;;;;;;8.13;7.33;;;8.10;99.90;;;;;;5076268;28;20195;-75
2021/04/10 05:59:56;;;;;;;8.07;7.00;;;8.10;99.90;;;;;;5079460;28;20202;-75
2021/04/10 06:02:23;;;;;;;8.20;7.43;;;8.10;99.90;;;;;;5090816;28;20207;-76
2021/04/10 06:04:50;;;;;;;8.67;7.83;;;8.10;99.90;;;;;;5076797;28;20231;-75
2021/04/10 06:07:16;;;;;;;8.43;7.60;;;8.10;99.90;;;;;;5084936;28;20212;-75
2021/04/10 06:09:42;;;;;;;8.30;7.50;;;8.10;99.90;;;;;;5086657;28;20822;-76
2021/04/10 06:12:09;;;;;;;8.53;7.63;;;8.10;99.90;;;;;;5073436;28;20248;-75
2021/04/10 06:14:35;;;;;;;9.57;7.50;;;8.00;99.90;;;;;;5083807;28;20235;-76
2021/04/10 06:17:02;;;;;;;8.60;7.63;;;8.00;99.90;;;;;;5080231;28;20211;-76
2021/04/10 06:19:30;;;;;;;8.20;7.47;;;8.00;99.90;;;;;;5086904;28;20243;-76
2021/04/10 06:21:56;;;;;;;8.30;7.37;;;8.00;99.90;;;;;;5086919;28;20226;-76
2021/04/10 06:24:23;;;;;;;8.90;8.10;;;8.00;99.90;;;;;;5086781;28;20270;-75
2021/04/10 06:26:49;;;;;;;7.73;7.13;;;7.90;99.90;;;;;;5086600;28;20233;-75
2021/04/10 06:29:15;;;;;;;9.00;8.20;;;7.90;99.90;;;;;;5086893;28;20285;-76
2021/04/10 06:31:41;;;;;;;11.43;8.40;;;7.90;99.90;;;;;;5086778;28;20198;-76
2021/04/10 06:34:07;;;;;;;11.63;7.70;;;7.90;99.90;;;;;;5086942;28;20234;-76
2021/04/10 06:36:37;;;;;;;8.33;7.67;;;7.90;99.90;;;;;;5086442;28;20211;-81
2021/04/10 06:39:04;;;;;;;8.40;7.70;;;7.90;99.90;;;;;;5086781;28;20595;-77
2021/04/10 06:41:30;;;;;;;8.60;7.70;;;8.00;99.90;;;;;;5086213;28;20213;-75
2021/04/10 06:44:01;;;;;;;8.00;7.20;;;8.00;99.90;;;;;;5087109;28;20238;-76
2021/04/10 06:46:31;;;;;;;6.57;5.93;;;8.10;99.90;;;;;;5080314;28;20218;-76
2021/04/10 06:49:02;;;;;;;6.70;6.10;;;8.10;99.90;;;;;;5066462;28;20207;-76
2021/04/10 06:51:29;;;;;;;7.07;6.40;;;8.10;99.90;;;;;;5082807;28;20227;-76
2021/04/10 06:53:57;;;;;;;6.73;6.03;;;8.10;99.90;;;;;;5074936;28;20680;-77
2021/04/10 06:56:26;;;;;;;7.13;6.40;;;8.10;99.90;;;;;;5082253;28;20269;-78
2021/04/10 06:59:00;;;;;;;6.53;5.97;;;8.10;99.90;;;;;;5072456;28;20582;-78
2021/04/10 07:01:27;;;;;;;6.17;5.37;;;8.10;99.90;;;;;;5081313;28;20196;-76
2021/04/10 07:03:57;;;;;;;6.23;5.47;;;8.10;99.90;;;;;;5075268;28;20282;-76
2021/04/10 07:06:23;;;;;;;7.33;5.73;;;8.10;99.90;;;;;;5075424;28;20288;-77
2021/04/10 07:08:49;;;;;;;7.07;5.43;;;8.10;99.90;;;;;;5077375;28;20272;-76
2021/04/10 07:11:16;;;;;;;6.27;5.00;;;8.10;99.90;;;;;;5076090;28;20253;-75
2021/04/10 07:13:43;;;;;;;9.10;5.77;;;8.10;99.90;;;;;;5080462;28;20693;-76
2021/04/10 07:16:15;;;;;;;7.30;5.23;;;8.00;99.90;;;;;;5086297;28;20214;-76
2021/04/10 07:18:41;;;;;;;7.23;5.30;;;8.10;99.90;;;;;;5076212;28;20195;-76
2021/04/10 07:21:15;;;;;;;7.60;5.50;;;8.10;99.90;;;;;;5076601;28;20226;-76
2021/04/10 07:23:44;;;;;;;5.80;4.90;;;8.00;99.90;;;;;;5078141;28;20221;-74
2021/04/10 07:26:10;;;;;;;8.00;6.00;;;8.00;99.90;;;;;;5073712;28;20721;-75
2021/04/10 07:28:38;;;;;;;5.90;5.40;;;8.00;99.90;;;;;;5066061;28;20203;-77
2021/04/10 07:31:06;;;;;;;6.30;5.10;;;8.00;99.90;;;;;;5068742;28;20308;-75
2021/04/10 07:33:33;;;;;;;7.93;5.73;;;8.10;99.90;;;;;;5075462;28;20255;-76
2021/04/10 07:36:01;;;;;;;7.97;5.63;;;8.10;99.90;;;;;;5081958;28;20210;-76
2021/04/10 07:38:30;;;;;;;6.57;5.00;;;8.10;99.90;;;;;;5087021;28;20760;-76
2021/04/10 07:40:57;;;;;;;7.27;5.10;;;8.10;99.90;;;;;;5088788;28;20211;-75
2021/04/10 07:43:25;;;;;;;6.47;5.23;;;8.10;99.90;;;;;;5085753;28;20580;-76
2021/04/10 07:46:10;;;;;;;6.10;5.50;;;8.20;99.90;;;;;;5085613;28;20219;-76
2021/04/10 07:48:37;;;;;;;5.63;5.07;;;8.20;99.90;;;;;;5076121;28;20225;-76
2021/04/10 07:51:03;;;;;;;7.37;5.23;;;8.20;99.90;;;;;;5080635;28;20580;-75
2021/04/10 07:53:30;;;;;;;7.43;5.07;;;8.20;99.90;;;;;;5088385;28;20230;-75
2021/04/10 07:55:57;;;;;;;7.27;5.30;;;8.20;99.90;;;;;;5081799;28;20207;-75
2021/04/10 07:58:26;;;;;;;4.83;4.43;;;8.20;99.90;;;;;;5078242;28;20206;-75
2021/04/10 08:00:55;;;;;;;6.33;4.67;;;8.30;99.90;;;;;;5088032;28;20214;-76
2021/04/10 08:03:41;;;;;;;7.17;4.43;;;8.30;99.90;;;;;;5088625;28;20206;-76
2021/04/10 08:06:19;;;;;;;7.00;4.77;;;8.30;99.90;;;;;;5088507;28;20223;-76
2021/04/10 08:08:48;;;;;;;6.30;4.73;;;8.40;99.90;;;;;;5087709;28;20730;-75
2021/04/10 08:11:14;;;;;;;7.60;4.97;;;8.40;99.90;;;;;;5088185;28;20202;-75
2021/04/10 08:13:54;;;;;;;5.23;4.37;;;8.40;99.90;;;;;;5088622;28;20207;-75
2021/04/10 08:16:22;;;;;;;7.27;4.57;;;8.50;99.90;;;;;;5088217;28;20273;-75
2021/04/10 08:18:50;;;;;;;5.70;4.07;;;8.40;99.90;;;;;;5087916;28;20881;-76
2021/04/10 08:21:35;;;;;;;7.17;4.67;;;8.50;99.90;;;;;;5088297;28;20738;-75
2021/04/10 08:24:22;;;;;;;5.70;3.77;;;8.50;99.90;;;;;;5088036;28;20709;-75
2021/04/10 08:26:49;;;;;;;5.30;3.57;;;8.50;99.90;;;;;;5087545;28;20609;-75
2021/04/10 08:29:15;;;;;;;5.27;3.50;;;8.50;99.90;;;;;;5087931;28;20268;-75
2021/04/10 08:31:42;;;;;;;6.00;3.80;;;8.60;99.90;;;;;;5088024;28;20242;-75
2021/04/10 08:34:08;;;;;;;6.43;3.67;;;8.60;99.90;;;;;;5088016;28;20202;-75
2021/04/10 08:36:38;;;;;;;5.00;3.60;;;8.70;99.90;;;;;;5088069;28;20214;-75
2021/04/10 08:39:05;;;;;;;4.77;3.90;;;8.70;99.90;;;;;;5087995;28;20240;-75
2021/04/10 08:41:33;;;;;;;7.50;4.10;;;8.60;99.90;;;;;;5087638;28;20194;-75
2021/04/10 08:44:00;;;;;;;6.17;4.10;;;8.60;99.90;;;;;;5088080;28;20242;-75
2021/04/10 08:46:29;;;;;;;7.00;4.10;;;8.70;99.90;;;;;;5088010;28;20238;-76
2021/04/10 08:48:59;;;;;;;6.47;4.07;;;8.80;99.90;;;;;;5087845;28;20210;-75
2021/04/10 08:51:28;;;;;;;6.63;4.23;;;8.90;99.90;;;;;;5088042;28;20206;-75
2021/04/10 08:53:57;;;;;;;4.93;3.57;;;9.00;99.90;;;;;;5087765;28;20214;-75
2021/04/10 08:56:26;;;;;;;4.90;4.07;;;9.00;99.90;;;;;;5087952;28;20210;-75
2021/04/10 08:58:52;;;;;;;6.53;4.03;;;9.10;99.90;;;;;;5087614;28;20275;-75
2021/04/10 09:01:23;;;;;;;4.97;3.97;;;9.10;99.90;;;;;;5087947;28;20214;-76
2021/04/10 09:03:51;;;;;;;4.17;3.77;;;9.10;99.90;;;;;;5087996;28;20210;-75
2021/04/10 09:06:50;;;;;;;4.43;3.43;;;9.20;99.90;;;;;;5087736;28;20325;-76
2021/04/10 09:09:30;;;;;;;4.57;4.00;;;9.20;99.90;;;;;;5087779;28;20195;-76
2021/04/10 09:12:26;;;;;;;5.97;4.23;;;9.20;99.90;;;;;;5087685;28;20556;-75
2021/04/10 09:14:53;;;;;;;4.53;3.77;;;9.20;99.90;;;;;;5044691;28;20783;-76
2021/04/10 09:17:19;;;;;;;5.60;3.50;;;9.30;99.90;;;;;;5077598;28;20290;-76
2021/04/10 09:19:46;;;;;;;3.60;3.30;;;9.30;99.90;;;;;;5087303;28;20213;-75
2021/04/10 09:22:18;;;;;;;3.73;3.37;;;9.40;99.90;;;;;;5087545;28;20226;-75
2021/04/10 09:24:45;;;;;;;3.93;3.50;;;9.40;99.90;;;;;;5087837;28;20590;-75
2021/04/10 09:27:21;;;;;;;6.47;3.80;;;9.30;99.90;;;;;;5087514;28;20228;-75
2021/04/10 09:29:52;;;;;;;5.13;3.90;;;9.40;99.90;;;;;;5087522;28;20213;-75
2021/04/10 09:32:36;;;;;;;3.47;3.13;;;9.50;99.90;;;;;;5087140;28;20188;-75
2021/04/10 09:35:05;;;;;;;4.30;3.33;;;9.70;99.90;;;;;;5073868;28;20203;-73
2021/04/10 09:37:49;;;;;;;4.67;3.50;;;9.80;99.90;;;;;;5076243;28;20654;-75
2021/04/10 09:40:21;;;;;;;8.77;4.60;;;9.90;99.90;;;;;;5078998;28;20202;-76
2021/04/10 09:42:49;;;;;;;4.57;4.13;;;10.00;99.90;;;;;;5082241;28;20206;-76
2021/04/10 09:45:17;;;;;;;5.07;3.43;;;10.20;99.90;;;;;;5081821;28;20234;-77
2021/04/10 09:48:22;;;;;;;4.60;3.60;;;10.30;99.90;;;;;;5089691;28;20669;-76
2021/04/10 09:51:10;;;;;;;6.00;3.77;;;10.50;99.90;;;;;;5091033;28;20210;-75
2021/04/10 09:53:37;;;;;;;5.00;3.77;;;10.60;99.90;;;;;;5090647;28;20194;-75
2021/04/10 09:56:05;;;;;;;9.70;4.97;;;10.70;99.90;;;;;;5090575;28;20673;-75
2021/04/10 09:58:36;;;;;;;4.67;3.73;;;10.80;99.90;;;;;;5090812;28;20207;-76
2021/04/10 10:01:06;;;;;;;5.27;4.07;;;10.90;99.90;;;;;;5091011;28;20214;-75
2021/04/10 10:03:32;;;;;;;5.17;3.43;;;10.90;99.90;;;;;;5090591;28;20207;-75
2021/04/10 10:05:59;;;;;;;7.07;4.10;;;10.90;99.90;;;;;;5090514;28;20850;-75
2021/04/10 10:08:31;;;;;;;5.20;3.87;;;10.90;99.90;;;;;;5090692;28;20277;-75
2021/04/10 10:10:59;;;;;;;5.57;3.90;;;10.80;99.90;;;;;;5090489;28;20202;-76
2021/04/10 10:13:30;;;;;;;4.97;3.80;;;10.90;99.90;;;;;;5090613;28;20260;-76
2021/04/10 10:15:56;;;;;;;5.27;3.97;;;11.00;99.90;;;;;;5089844;28;20660;-76
2021/04/10 10:18:25;;;;;;;4.33;3.60;;;11.10;99.90;;;;;;5090253;28;20837;-76
2021/04/10 10:20:57;;;;;;;6.10;3.90;;;11.30;99.90;;;;;;5089979;28;20294;-75
2021/04/10 10:23:24;;;;;;;4.37;3.90;;;11.30;99.90;;;;;;5090283;28;20237;-75
2021/04/10 10:25:51;;;;;;;4.17;3.83;;;11.50;99.90;;;;;;5090396;28;20241;-77
2021/04/10 10:28:19;;;;;;;4.07;3.57;;;11.40;99.90;;;;;;5090243;28;20210;-76
2021/04/10 10:30:46;;;;;;;5.20;3.67;;;11.40;99.90;;;;;;5090273;28;20202;-75
2021/04/10 10:33:13;;;;;;;4.03;3.20;;;11.50;99.90;;;;;;5090349;28;20857;-76
2021/04/10 10:35:50;;;;;;;4.03;3.43;;;11.60;99.90;;;;;;5086273;28;20566;-76
2021/04/10 10:38:16;;;;;;;6.03;3.43;;;11.60;99.90;;;;;;5070015;28;20217;-75
2021/04/10 10:40:47;;;;;;;5.07;3.30;;;11.60;99.90;;;;;;5070104;28;20207;-75
2021/04/10 10:43:14;;;;;;;3.93;3.33;;;11.60;99.90;;;;;;5070339;28;20279;-75
2021/04/10 10:45:43;;;;;;;4.20;2.90;;;11.50;99.90;;;;;;5069491;28;20238;-76
2021/04/10 10:48:24;;;;;;;3.87;3.37;;;11.40;99.90;;;;;;5069963;28;20207;-76
2021/04/10 10:50:52;;;;;;;5.00;3.27;;;11.40;99.90;;;;;;5069181;28;20187;-77
2021/04/10 10:53:21;;;;;;;6.17;3.90;;;11.40;99.90;;;;;;5069773;28;20250;-76
2021/04/10 10:55:54;;;;;;;4.10;3.70;;;11.40;99.90;;;;;;5069575;28;20285;-76
2021/04/10 10:58:22;;;;;;;4.13;3.53;;;11.30;99.90;;;;;;5069653;28;20207;-76
2021/04/10 11:00:49;;;;;;;3.87;3.33;;;11.40;99.90;;;;;;5069670;28;20210;-76
2021/04/10 11:03:19;;;;;;;4.70;3.40;;;11.40;99.90;;;;;;5069571;28;20654;-76
2021/04/10 11:05:47;;;;;;;4.43;3.67;;;11.30;99.90;;;;;;5069881;28;20333;-76
2021/04/10 11:08:14;;;;;;;4.63;3.83;;;11.20;99.90;;;;;;5081913;28;20203;-76
2021/04/10 11:10:40;;;;;;;5.37;3.90;;;11.10;99.90;;;;;;5089767;28;20210;-76
2021/04/10 11:13:09;;;;;;;4.37;3.60;;;11.00;99.90;;;;;;5089866;28;20223;-75
2021/04/10 11:15:36;;;;;;;3.00;2.80;;;10.80;99.90;;;;;;5089360;28;20239;-76
2021/04/10 11:18:03;;;;;;;3.47;3.17;;;10.70;99.90;;;;;;5089608;28;20206;-75
2021/04/10 11:20:33;;;;;;;4.13;3.00;;;10.70;99.90;;;;;;5089277;28;20695;-75
2021/04/10 11:23:06;;;;;;;3.70;2.87;;;10.70;99.90;;;;;;5076949;28;20409;-76
2021/04/10 11:25:54;;;;;;;6.63;4.77;;;10.60;99.90;;;;;;5080757;28;20754;-76
2021/04/10 11:28:31;;;;;;;10.90;8.27;;;10.60;99.90;;;;;;5079277;28;20695;-74
2021/04/10 11:31:05;;;;;;;6.47;5.27;;;10.60;99.90;;;;;;5076518;28;20268;-73
2021/04/10 11:33:33;;;;;;;4.90;3.67;;;10.60;99.90;;;;;;5078922;28;20256;-75
2021/04/10 11:35:59;;;;;;;8.60;5.60;;;10.60;99.90;;;;;;5088872;28;20206;-76
2021/04/10 11:38:25;;;;;;;4.30;3.50;;;10.60;99.90;;;;;;5089427;28;20203;-76
2021/04/10 11:40:51;;;;;;;4.17;3.43;;;10.60;99.90;;;;;;5088296;28;20238;-76
2021/04/10 11:43:18;;;;;;;5.37;3.70;;;10.60;99.90;;;;;;5082781;28;20245;-76
2021/04/10 11:45:47;;;;;;;4.10;3.17;;;10.60;99.90;;;;;;5084739;28;20708;-76
2021/04/10 11:48:15;;;;;;;4.83;3.13;;;10.60;99.90;;;;;;5088731;28;20211;-76
2021/04/10 11:50:48;;;;;;;3.00;2.70;;;10.50;99.90;;;;;;5087938;28;20290;-75
2021/04/10 11:53:17;;;;;;;3.10;2.50;;;10.50;99.90;;;;;;5089059;28;20195;-75
2021/04/10 11:55:43;;;;;;;3.37;2.47;;;10.40;99.90;;;;;;5086446;28;20214;-75
2021/04/10 11:58:10;;;;;;;2.70;2.50;;;10.40;99.90;;;;;;5068608;28;20208;-75
2021/04/10 12:00:36;;;;;;;3.23;2.87;;;10.40;99.90;;;;;;5068359;28;20261;-76
2021/04/10 12:03:07;;;;;;;2.47;2.13;;;10.40;99.90;;;;;;5068387;28;20207;-76
2021/04/10 12:05:39;;;;;;;3.00;2.20;;;10.50;99.90;;;;;;5068437;28;20243;-76
2021/04/10 12:08:11;;;;;;;4.57;2.43;;;10.40;99.90;;;;;;5068057;28;20261;-76
2021/04/10 12:10:40;;;;;;;3.13;2.27;;;10.40;99.90;;;;;;5068441;28;20321;-76
2021/04/10 12:13:07;;;;;;;2.70;2.40;;;10.40;99.90;;;;;;5068457;28;20264;-76
2021/04/10 12:15:34;;;;;;;5.93;2.53;;;10.40;99.90;;;;;;5068044;28;20239;-76
2021/04/10 12:18:01;;;;;;;3.20;2.90;;;10.40;99.90;;;;;;5068273;28;20252;-76
2021/04/10 12:20:38;;;;;;;4.87;2.67;;;10.40;99.90;;;;;;5068491;28;20204;-76
2021/04/10 12:23:05;;;;;;;4.53;2.60;;;10.40;99.90;;;;;;5067061;28;20276;-76
2021/04/10 12:25:32;;;;;;;4.73;3.03;;;10.30;99.90;;;;;;5067980;28;20231;-76
2021/04/10 12:27:59;;;;;;;5.20;2.80;;;10.30;99.90;;;;;;5068110;28;20203;-76
2021/04/10 12:30:26;;;;;;;5.30;3.03;;;10.30;99.90;;;;;;5068558;28;20200;-76
2021/04/10 12:32:52;;;;;;;5.23;2.90;;;10.30;99.90;;;;;;5068146;28;20207;-76
2021/04/10 12:35:18;;;;;;;3.93;2.50;;;10.40;99.90;;;;;;5068182;28;20214;-76
2021/04/10 12:37:44;;;;;;;6.22;3.22;;;10.40;99.90;;;;;;5067464;28;20441;-76
2021/04/10 12:40:11;;;;;;;5.33;2.63;;;10.40;99.90;;;;;;5068014;28;20211;-76
2021/04/10 12:42:38;;;;;;;3.93;2.50;;;10.40;99.90;;;;;;5067927;28;20207;-76
2021/04/10 12:45:07;;;;;;;9.40;3.20;;;10.30;99.90;;;;;;5067295;28;20231;-76
2021/04/10 12:47:33;;;;;;;8.83;3.10;;;10.40;99.90;;;;;;5067533;28;20860;-76
2021/04/10 12:49:59;;;;;;;6.97;3.20;;;10.30;99.90;;;;;;5067913;28;20218;-76
2021/04/10 12:52:26;;;;;;;6.87;2.97;;;10.30;99.90;;;;;;5068230;28;20207;-76
2021/04/10 12:54:53;;;;;;;5.83;3.10;;;10.30;99.90;;;;;;5067879;28;20218;-76
2021/04/10 12:57:19;;;;;;;6.00;3.27;;;10.20;99.90;;;;;;5067466;28;20598;-76
2021/04/10 12:59:46;;;;;;;6.13;2.90;;;10.20;99.90;;;;;;5067685;28;20207;-76
2021/04/10 13:02:12;;;;;;;7.83;3.40;;;10.20;99.90;;;;;;5068020;28;20207;-76
2021/04/10 13:04:38;;;;;;;4.07;2.70;;;10.20;99.90;;;;;;5068040;28;20204;-76